Catlettsburg, KY (41129)

09:41 AM EST on Δεκέμβριος 10, 2016 (GMT -0500)
Kenova | | Change Station

Elev 554 ft 38.40 °N, 82.57 °W | Updated 57 seconds ago

Νεφοσκεπής
Νεφοσκεπής
25.2 ° F
Feels Like 20 ° F
N
4.2
Ανεμος Μεταβλητός Ανεμος from ΔΒΔ

Σήμερα
High -- | Low -- ° F
--% Chance of Precip.
Yesterday
High -- | Low -- ° F
Precip. -- in
Ατμοσφαιρική Πίεση 30.61 in
Ορατότητα 10.0 Μίλια
Σύννεφα Νεφοσκεπής 3000 ft
Δείκτης Ψυχρότητας 20 ° F
Σημείο Δρόσου 15 ° F
Υγρασία 65%
Rainfall 0.00 in
Snow Depth Not available.
7:37 AM 5:09 PM
Αμφίκυρτος, 84% visible
METAR KHTS 101351Z 00000KT 10SM OVC030 M04/M11 A3058 RMK AO2 SLP366 T10441106
Ατμοσφαιρική Πίεση 30.61 in
Ορατότητα 10.0 Μίλια
Σύννεφα Νεφοσκεπής 3000 ft
Δείκτης Ψυχρότητας 20 ° F
Σημείο Δρόσου 15 ° F
Υγρασία 65%
Rainfall 0.00 in
Snow Depth Not available.
7:37 AM 5:09 PM
Αμφίκυρτος, 84% visible
METAR KHTS 101351Z 00000KT 10SM OVC030 M04/M11 A3058 RMK AO2 SLP366 T10441106

10-Day Weather Forecast

Almanac

Αστρονομία

Dec. 10, 2016 Rise Set
Actual Time
Civil Twilight
Nautical Twilight
Astronomical Twilight
Moon
Length Of Visible Light
Διάρκεια ημέρας
Tomorrow will be .
, % of the Moon is Illuminated

Today's Extremes

State Highs State Lows

Community

WunderPhotos

Upload Photos

1,956,549 photos uploaded!

WunderBlog® & News

Nearby

Air Quality

  Air Quality AQ Index Pollutant
Not available.

Snow Depth

Station Depth Elevation

Earthquake Activity

City Distance Mag. Time & Date
Minimum magnitude displayed is 2.5.

Coastal Water Temperatures

Τοποθεσία Θερμοκρασία

Stations

Nearby Weather Stations

Station Location Temp Δείκτης Ψυχρότητας Σημείο Δρόσου Υγρασία Ανεμος Precip. Elev Ενημερώθηκε Type
                   

Watches & Warnings

There are currently no watches in effect.